^^
Datos históricos de la estación: Murcia-Puente Tocinos
Diario Informe para Noviembre 22, 2021 Unidades:  Ingés    Métrico   Ambas
Diario Semanal Mensual Anual
  Máxima: Mínima: Promedio:
Temperatura: 64.9 °F 53.1 °F 58.5 °F
Punto de rocio: 53.1 °F 47.7 °F 51.1 °F
Humedad: 92% 56.1% 77%
Velocidad viento: 10mph 0mph 3.5mph
Racha viento: 18.4mph - -
Viento- - Sur
Presión: 29.8 in 29.7 in -
Precipitación: 0.01 in    
 
 
Tabla de datos para Noviembre 22, 2021
Hora Temperatura Punto de rocio Presión Viento Velocidad viento Racha viento Humedad Intensidad lluvia(por hora) Nubes
00:04 59.7 °F 52.2 °F 29.8 in Sur 4 mph 6.4 mph 76% 0 in
00:09 59.7 °F 52.2 °F 29.8 in Sur 4.1 mph 7.4 mph 76% 0 in
00:14 59.5 °F 52 °F 29.8 in SSO 4.3 mph 8.5 mph 76% 0 in
00:19 59.5 °F 52 °F 29.8 in SSO 4.4 mph 7.4 mph 76% 0 in
00:24 59.7 °F 52.2 °F 29.8 in SSO 4.7 mph 8.5 mph 76% 0 in
00:29 59.7 °F 52 °F 29.8 in SSO 5.1 mph 9.2 mph 75.3% 0 in
00:34 59.7 °F 51.8 °F 29.8 in SSO 5.9 mph 8.1 mph 75% 0 in
00:39 59.9 °F 52 °F 29.8 in SSO 5.9 mph 8.5 mph 75% 0 in
00:44 59.9 °F 51.8 °F 29.8 in SSO 5.9 mph 6.9 mph 74.3% 0 in
00:49 60.1 °F 51.6 °F 29.8 in SSO 5.3 mph 6.2 mph 74% 0 in
00:54 60.1 °F 51.6 °F 29.8 in SSO 4.3 mph 6.2 mph 73.3% 0 in
00:59 60.1 °F 51.4 °F 29.8 in SSO 4.3 mph 5.9 mph 73% 0 in
01:04 60.3 °F 51.4 °F 29.8 in SSO 4.3 mph 7.6 mph 73% 0 in
01:09 60.1 °F 51.4 °F 29.8 in SSO 4.3 mph 8.1 mph 73% 0 in
01:14 60.1 °F 51.4 °F 29.8 in SSO 4.3 mph 6.9 mph 72.9% 0 in
01:19 60.1 °F 51.3 °F 29.8 in SSO 4.4 mph 6.9 mph 73% 0 in
01:24 59.9 °F 51.1 °F 29.8 in Sur 4.7 mph 6.9 mph 73% 0 in
01:29 59.7 °F 51.3 °F 29.8 in SSO 4.5 mph 5.9 mph 73.8% 0 in
01:34 59.5 °F 51.3 °F 29.8 in SSO 4.3 mph 5.9 mph 74% 0 in
01:39 59.5 °F 51.3 °F 29.8 in SO 4.2 mph 5.9 mph 74% 0 in
01:44 59.4 °F 51.1 °F 29.8 in SO 4 mph 6.9 mph 74% 0 in
01:49 59.4 °F 51.1 °F 29.8 in OSO 3.9 mph 4.7 mph 74% 0 in
01:54 59.4 °F 51.1 °F 29.8 in OSO 3.6 mph 4.7 mph 74% 0 in
01:59 59.4 °F 51.1 °F 29.8 in OSO 3.4 mph 5.9 mph 74% 0 in
02:04 59.2 °F 50.9 °F 29.8 in SO 2.9 mph 5.2 mph 74% 0 in
02:09 59.2 °F 50.9 °F 29.8 in OSO 3.2 mph 5.2 mph 74% 0 in
02:14 59.2 °F 50.9 °F 29.8 in OSO 3.6 mph 4.7 mph 74% 0 in
02:19 59.2 °F 50.9 °F 29.8 in SO 3.4 mph 4.7 mph 74% 0 in
02:24 59 °F 50.9 °F 29.8 in SO 3.1 mph 4.6 mph 74.3% 0 in
02:29 59 °F 51.1 °F 29.8 in SO 3 mph 4.6 mph 75% 0 in
02:34 58.8 °F 50.9 °F 29.8 in SSO 2.9 mph 4.6 mph 75% 0 in
02:39 58.8 °F 50.9 °F 29.8 in Sur 2.9 mph 4.6 mph 75% 0 in
02:44 58.6 °F 51.1 °F 29.8 in Sur 2.9 mph 2.9 mph 75.9% 0 in
02:49 58.6 °F 51.1 °F 29.8 in Sur 2.5 mph 4 mph 76% 0 in
02:54 58.6 °F 51.1 °F 29.8 in SSE 1.8 mph 4.6 mph 76.2% 0 in
02:59 58.5 °F 51.3 °F 29.8 in SSO 2.3 mph 5.2 mph 77% 0 in
03:04 58.5 °F 51.3 °F 29.8 in SSO 3.1 mph 4.6 mph 77.1% 0 in
03:09 58.3 °F 51.4 °F 29.8 in SSO 3.1 mph 4.6 mph 78% 0 in
03:14 58.3 °F 51.4 °F 29.8 in SSO 3.1 mph 5.2 mph 78% 0 in
03:19 58.3 °F 51.4 °F 29.8 in Sur 3.2 mph 5.8 mph 78.4% 0 in
03:24 58.1 °F 51.6 °F 29.8 in Sur 3.6 mph 5.9 mph 79% 0 in
03:29 57.9 °F 51.8 °F 29.8 in SSE 3.7 mph 6.2 mph 79.9% 0 in
03:34 57.7 °F 51.8 °F 29.8 in SSE 4 mph 6.4 mph 80.8% 0 in
03:39 57.6 °F 52 °F 29.8 in SSE 4.1 mph 6.9 mph 81.6% 0 in
03:44 57.4 °F 52 °F 29.8 in Sur 4.3 mph 7.4 mph 82.3% 0 in
03:49 57.2 °F 52.2 °F 29.8 in Sur 4.6 mph 6.9 mph 83% 0 in
03:54 57 °F 52 °F 29.8 in SSO 5.2 mph 6.9 mph 83% 0 in
03:59 57 °F 52 °F 29.8 in SSO 4.8 mph 6.9 mph 83% 0 in
04:04 57 °F 52 °F 29.8 in Sur 4 mph 5.9 mph 83% 0 in
04:09 57 °F 52 °F 29.8 in SSO 3.9 mph 6.2 mph 83% 0 in
04:14 57 °F 52 °F 29.8 in SSO 3.6 mph 6.2 mph 83% 0 in
04:19 57 °F 51.8 °F 29.8 in SSO 3.9 mph 6.9 mph 82.8% 0 in
04:24 57.2 °F 51.8 °F 29.8 in SSO 4.3 mph 6.9 mph 82% 0 in
04:29 57.4 °F 51.6 °F 29.8 in SSO 4.4 mph 6.9 mph 81.3% 0 in
04:34 57.4 °F 51.6 °F 29.8 in SSO 4.7 mph 5.8 mph 80.9% 0 in
04:39 57.6 °F 51.4 °F 29.8 in SSO 4.3 mph 5.8 mph 80% 0 in
04:44 57.7 °F 51.3 °F 29.8 in SSO 3.6 mph 5.2 mph 79.2% 0 in
04:49 57.7 °F 51.1 °F 29.8 in SSO 3.6 mph 5.9 mph 78.5% 0 in
04:54 57.9 °F 51.1 °F 29.8 in SSO 3.6 mph 5.9 mph 77.9% 0 in
04:59 58.1 °F 50.9 °F 29.8 in SO 3.7 mph 6.2 mph 77% 0 in
05:04 58.1 °F 50.7 °F 29.8 in SO 4 mph 5.9 mph 76.5% 0 in
05:09 58.3 °F 50.7 °F 29.8 in SO 3.9 mph 5.8 mph 76% 0 in
05:14 58.3 °F 50.7 °F 29.8 in SO 3.6 mph 5.2 mph 76% 0 in
05:19 58.3 °F 50.5 °F 29.8 in SO 3.4 mph 4.6 mph 75.1% 0 in
05:24 58.5 °F 50.5 °F 29.8 in SSO 3.1 mph 4.6 mph 75% 0 in
05:29 58.5 °F 50.5 °F 29.8 in SO 3.1 mph 6.9 mph 75% 0 in
05:34 58.5 °F 50.5 °F 29.8 in SSO 3.1 mph 6.9 mph 75% 0 in
05:39 58.5 °F 50.5 °F 29.8 in SSO 3.3 mph 5.8 mph 74.7% 0 in
05:44 58.5 °F 50.5 °F 29.8 in SSO 3.6 mph 5.2 mph 75% 0 in
05:49 58.5 °F 50.5 °F 29.8 in SO 3.6 mph 5.4 mph 75% 0 in
05:54 58.5 °F 50.5 °F 29.8 in SO 3.6 mph 5.8 mph 75% 0 in
05:59 58.3 °F 50.4 °F 29.8 in SO 3.4 mph 6.4 mph 75% 0 in
06:04 58.3 °F 50.4 °F 29.8 in SSO 3.1 mph 6.9 mph 75% 0 in
06:09 58.3 °F 50.4 °F 29.8 in SSO 3.7 mph 6.9 mph 75.1% 0 in
06:14 58.1 °F 50.7 °F 29.8 in SSO 4.7 mph 6.9 mph 76% 0 in
06:19 58.1 °F 50.5 °F 29.8 in SSO 4.6 mph 7.4 mph 76% 0 in
06:24 57.9 °F 50.4 °F 29.8 in SSO 4.3 mph 6.9 mph 76% 0 in
06:29 57.9 °F 50.4 °F 29.8 in SO 4.4 mph 6.2 mph 76% 0 in
06:34 57.9 °F 50.4 °F 29.8 in SO 4.7 mph 6.9 mph 76% 0 in
06:39 57.9 °F 50.4 °F 29.8 in SO 4.6 mph 7.6 mph 76% 0 in
06:44 57.9 °F 50 °F 29.8 in SSO 4.3 mph 8.7 mph 75% 0 in
06:49 58.1 °F 50.2 °F 29.8 in SSO 4.7 mph 9.2 mph 75% 0 in
06:54 58.1 °F 50.2 °F 29.8 in SSO 5.4 mph 8.1 mph 75% 0 in
06:59 57.9 °F 50.2 °F 29.8 in SSO 5.3 mph 6.9 mph 75.3% 0 in
07:04 57.9 °F 50.4 °F 29.8 in SSO 5.2 mph 6.9 mph 76% 0 in
07:09 57.7 °F 50.4 °F 29.8 in SSO 4.9 mph 8.1 mph 76% 0 in
07:14 57.7 °F 50.4 °F 29.8 in SO 4.3 mph 8.1 mph 76.3% 0 in
07:19 57.7 °F 50.5 °F 29.8 in SO 4.3 mph 6.9 mph 77% 0 in
07:24 57.7 °F 50.5 °F 29.8 in SO 4.3 mph 6.9 mph 77% 0 in
07:29 57.7 °F 50.5 °F 29.8 in SSO 4.3 mph 7.4 mph 77% 0 in
07:34 57.7 °F 50.5 °F 29.8 in SSO 4.3 mph 7.4 mph 77% 0 in
07:39 57.7 °F 50.7 °F 29.8 in Sur 4.4 mph 6.9 mph 77.7% 0 in
07:44 57.6 °F 50.7 °F 29.8 in Sur 4.7 mph 6.9 mph 78% 0 in
07:49 57.6 °F 50.9 °F 29.8 in Sur 4.6 mph 6.2 mph 78.3% 0 in
07:54 57.6 °F 51.1 °F 29.8 in Sur 4.3 mph 7.4 mph 79% 0 in
07:59 57.4 °F 50.9 °F 29.8 in SSO 4.3 mph 8.1 mph 79% 0 in
08:04 57.4 °F 50.9 °F 29.8 in SSO 4.3 mph 6.2 mph 79% 0 in
08:09 57.6 °F 51.1 °F 29.8 in Sur 4.4 mph 8.5 mph 79% 0 in
08:14 57.6 °F 51.1 °F 29.8 in SO 4.7 mph 8.1 mph 78.7% 0 in
08:19 57.6 °F 50.7 °F 29.8 in SO 4.6 mph 8.1 mph 78% 0 in
08:24 57.6 °F 50.7 °F 29.8 in SSO 4.3 mph 8.1 mph 78% 0 in
08:29 57.6 °F 50.7 °F 29.8 in SSO 4.7 mph 6.9 mph 78% 0 in
08:34 57.6 °F 50.7 °F 29.8 in SO 5.4 mph 7.4 mph 78% 0 in
08:39 57.6 °F 50.9 °F 29.8 in SSO 5.2 mph 7.4 mph 78% 0 in
08:44 57.7 °F 50.9 °F 29.8 in SO 4.7 mph 7.4 mph 78% 0 in
08:49 57.7 °F 50.9 °F 29.8 in SO 4.6 mph 6.9 mph 78% 0 in
08:54 57.9 °F 50.9 °F 29.8 in OSO 4.3 mph 6.9 mph 77.4% 0 in
08:59 57.9 °F 50.7 °F 29.8 in OSO 4 mph 6.2 mph 77% 0 in
09:04 57.9 °F 50.9 °F 29.8 in SO 3.6 mph 5.2 mph 77% 0 in
09:09 58.3 °F 51.1 °F 29.8 in SO 3.4 mph 4.6 mph 77% 0 in
09:14 58.3 °F 51.1 °F 29.8 in Sur 2.9 mph 4.7 mph 76.9% 0 in
09:19 58.3 °F 51.1 °F 29.8 in SSE 3 mph 5.9 mph 77% 0 in
09:24 58.3 °F 51.3 °F 29.8 in SSE 3.1 mph 6.9 mph 77.4% 0 in
09:29 58.1 °F 51.3 °F 29.8 in Sur 3.5 mph 5.9 mph 78% 0 in
09:34 58.1 °F 51.3 °F 29.8 in SSO 4.3 mph 5.4 mph 78% 0 in
09:39 58.1 °F 51.3 °F 29.8 in SSO 3.7 mph 5.9 mph 78% 0 in
09:44 58.3 °F 51.3 °F 29.8 in SSO 2.4 mph 5.8 mph 77.5% 0 in
09:49 58.5 °F 51.3 °F 29.8 in SO 2.5 mph 4.7 mph 77% 0 in
09:54 58.6 °F 51.1 °F 29.8 in OSO 2.9 mph 5.2 mph 75.9% 0 in
09:59 59 °F 50.7 °F 29.8 in SO 2.9 mph 5.2 mph 74.1% 0 in
10:04 59.4 °F 50.7 °F 29.8 in OSO 2.9 mph 6.2 mph 73.2% 0 in
10:09 59.4 °F 50.7 °F 29.8 in OSO 3.1 mph 7.4 mph 73% 0 in
10:14 59.4 °F 50.4 °F 29.8 in OSO 3.6 mph 8.1 mph 72.1% 0 in
10:19 59.4 °F 50.4 °F 29.8 in Oeste 4 mph 8.1 mph 72% 0 in
10:24 59.5 °F 50.5 °F 29.8 in SO 4.7 mph 6.9 mph 72% 0 in
10:29 59.5 °F 50.4 °F 29.8 in OSO 4.5 mph 8.1 mph 71.6% 0 in
10:34 59.5 °F 50.4 °F 29.8 in SSO 4 mph 5.8 mph 71.5% 0 in
10:39 59.9 °F 50.7 °F 29.8 in SO 3.9 mph 6.9 mph 71.5% 0 in
10:44 60.3 °F 50.7 °F 29.8 in OSO 3.6 mph 8.1 mph 71% 0 in
10:49 60.3 °F 50.9 °F 29.8 in SO 3.6 mph 6.9 mph 70.9% 0 in
10:54 60.6 °F 51.1 °F 29.8 in SSE 3.6 mph 6.4 mph 70.4% 0 in
10:59 61.2 °F 50.7 °F 29.8 in SSE 3.7 mph 8.1 mph 68.7% 0 in
11:04 61.3 °F 50.9 °F 29.8 in Sur 4 mph 8.5 mph 68.4% 0 in
11:09 61.5 °F 50.7 °F 29.8 in Sur 4 mph 8.1 mph 67.5% 0 in
11:14 61.9 °F 50.4 °F 29.8 in SO 4 mph 9.7 mph 65.9% 0 in
11:19 61.9 °F 49.6 °F 29.8 in SO 3.9 mph 6.9 mph 64.1% 0 in
11:24 62.1 °F 49.8 °F 29.8 in SO 3.6 mph 6.9 mph 64.4% 0 in
11:29 62.2 °F 50.2 °F 29.8 in OSO 3.6 mph 6.2 mph 64.8% 0 in
11:34 62.2 °F 49.8 °F 29.8 in SO 3.6 mph 6.2 mph 64% 0 in
11:39 62.1 °F 49.6 °F 29.8 in OSO 3.4 mph 4.6 mph 64% 0 in
11:44 62.1 °F 49.8 °F 29.8 in Sur 2.9 mph 5.2 mph 64.2% 0 in
11:49 62.4 °F 50 °F 29.8 in SO 2.7 mph 5.9 mph 63.8% 0 in
11:54 62.6 °F 50.2 °F 29.8 in Oeste 2.4 mph 4.3 mph 63.9% 0 in
11:59 62.8 °F 50.2 °F 29.8 in OSO 2.2 mph 5.8 mph 63.5% 0 in
12:04 62.8 °F 50.4 °F 29.8 in Sur 2 mph 4.6 mph 63.9% 0 in
12:09 62.4 °F 50.2 °F 29.8 in SSE 2.4 mph 4.7 mph 64% 0 in
12:14 62.8 °F 50.2 °F 29.8 in OSO 3.1 mph 4.3 mph 63.6% 0 in
12:19 62.8 °F 50.2 °F 29.8 in North 2.7 mph 4.6 mph 63.5% 0 in
12:24 63.1 °F 50.4 °F 29.8 in NE 2 mph 3.6 mph 63.4% 0 in
12:29 63.7 °F 50.7 °F 29.8 in NNO 2 mph 3.5 mph 62.9% 0 in
12:34 64.4 °F 50.7 °F 29.8 in ESE 2 mph 3.6 mph 61.1% 0 in
12:39 64.9 °F 50.4 °F 29.8 in SE 2 mph 5.2 mph 59.5% 0 in
12:44 64.8 °F 50.5 °F 29.8 in ESE 2 mph 5.9 mph 60.1% 0 in
12:49 64.4 °F 50.4 °F 29.8 in ESE 2.3 mph 5.8 mph 60.4% 0 in
12:54 64 °F 50.4 °F 29.8 in Este 2.9 mph 5.9 mph 61% 0 in
12:59 63.9 °F 50.2 °F 29.8 in ESE 3 mph 5.9 mph 61% 0 in
13:04 63.9 °F 50.4 °F 29.8 in ESE 3.1 mph 7.4 mph 61.6% 0 in
13:09 63.9 °F 50.5 °F 29.8 in SE 3.3 mph 6.9 mph 61.7% 0 in
13:14 63.9 °F 50.2 °F 29.8 in ESE 3.6 mph 8.1 mph 61% 0 in
13:19 63.9 °F 50.2 °F 29.8 in ESE 4.1 mph 8.1 mph 61% 0 in
13:24 63.9 °F 50 °F 29.8 in ESE 5.2 mph 6.9 mph 60.6% 0 in
13:29 63.9 °F 49.5 °F 29.8 in Este 4.8 mph 4.7 mph 59.4% 0 in
13:34 64 °F 49.8 °F 29.8 in Este 4 mph 4.6 mph 60% 0 in
13:39 64 °F 49.8 °F 29.8 in SE 3.4 mph 4.6 mph 59.8% 0 in
13:44 64.2 °F 49.6 °F 29.8 in SE 2 mph 2.9 mph 59% 0 in
13:49 64.2 °F 49.3 °F 29.8 in SE 1.9 mph 6.2 mph 58.4% 0 in
13:54 64.4 °F 48.9 °F 29.8 in ONO 1.8 mph 4.6 mph 57.4% 0 in
13:59 64.2 °F 48.7 °F 29.8 in ONO 2 mph 5.4 mph 56.9% 0 in
14:04 64.4 °F 48.6 °F 29.8 in ONO 2.4 mph 5.8 mph 56.7% 0 in
14:09 64.4 °F 48.7 °F 29.8 in ONO 2.5 mph 4.6 mph 56.6% 0 in
14:14 64.6 °F 48.9 °F 29.8 in ONO 2.9 mph 2.9 mph 56.9% 0 in
14:19 64.6 °F 48.9 °F 29.8 in North 2.5 mph 4.6 mph 57% 0 in
14:24 64.6 °F 48.6 °F 29.8 in NNO 1.8 mph 3.6 mph 56.2% 0 in
14:29 64.6 °F 48.6 °F 29.7 in NNO 1.9 mph 3.6 mph 56.1% 0 in
14:34 64.6 °F 48.6 °F 29.7 in NNO 2 mph 3.5 mph 56.2% 0 in
14:39 64.6 °F 48.6 °F 29.7 in NNO 1.9 mph 2.4 mph 56.1% 0 in
14:44 64.6 °F 48.6 °F 29.7 in NO 1.8 mph 6.4 mph 56.3% 0 in
14:49 64.4 °F 48.7 °F 29.7 in ONO 2.5 mph 17.3 mph 56.6% 0 in
14:54 63 °F 47.7 °F 29.8 in ONO 4 mph 17.3 mph 57.4% 0 in
14:59 61.5 °F 48.2 °F 29.8 in ONO 6.1 mph 16.1 mph 61.6% 0 in
15:04 60.4 °F 48.6 °F 29.8 in ONO 10 mph 16.1 mph 64.8% 0 in
15:09 60.1 °F 48.9 °F 29.8 in ONO 9.8 mph 16.1 mph 66.5% 0 in
15:14 60.1 °F 49.5 °F 29.8 in NO 9.2 mph 17.5 mph 68% 0 in
15:19 59.5 °F 49.5 °F 29.8 in NO 9.4 mph 18.4 mph 69.1% 0 in
15:24 59.2 °F 50.2 °F 29.8 in NO 10 mph 16.1 mph 72.4% 0 in
15:29 58.5 °F 50.5 °F 29.8 in NO 9.4 mph 13 mph 74.7% 0 in
15:34 58.1 °F 50.5 °F 29.8 in NO 8.1 mph 12.7 mph 76% 0 in
15:39 57.9 °F 50.7 °F 29.8 in NO 7.5 mph 9.7 mph 76.9% 0 in
15:44 57.9 °F 50.9 °F 29.8 in Oeste 6.2 mph 5.8 mph 77.1% 0 in
15:49 57.9 °F 50.9 °F 29.8 in SSE 5.5 mph 7.6 mph 77.4% 0 in
15:54 57.9 °F 50.7 °F 29.8 in SSE 4 mph 9.7 mph 77% 0 in
15:59 58.1 °F 51.1 °F 29.8 in Sur 4.5 mph 8.1 mph 77.3% 0 in
16:04 58.3 °F 51.4 °F 29.8 in SSE 5.4 mph 11.5 mph 78% 0.01 in
16:09 57.9 °F 51.4 °F 29.8 in SSE 5.7 mph 10.4 mph 79.2% 0.01 in
16:14 57.7 °F 51.6 °F 29.8 in SSE 6.2 mph 11.2 mph 80.2% 0.01 in
16:19 57.4 °F 51.8 °F 29.8 in SSE 6.3 mph 11.5 mph 81.5% 0.01 in
16:24 57.4 °F 52 °F 29.8 in SSE 6.4 mph 10.4 mph 82% 0.01 in
16:29 57.4 °F 52 °F 29.8 in SSE 6.4 mph 9.7 mph 82.4% 0.01 in
16:34 57.4 °F 52 °F 29.8 in SSE 6.4 mph 9.2 mph 82.4% 0.01 in
16:39 57.4 °F 51.8 °F 29.8 in SSE 6.1 mph 6.9 mph 82% 0.01 in
16:44 57.4 °F 52 °F 29.8 in Sur 5.4 mph 6.9 mph 82.1% 0.01 in
16:49 57.4 °F 52 °F 29.8 in Sur 5 mph 5.9 mph 82% 0.01 in
16:54 57.4 °F 52 °F 29.8 in SSO 4.3 mph 8.1 mph 82% 0.01 in
16:59 57.4 °F 51.8 °F 29.8 in SSO 4.6 mph 8.1 mph 82% 0.01 in
17:04 57.4 °F 52 °F 29.8 in SSO 5.2 mph 5.9 mph 82% 0.01 in
17:09 57.6 °F 52.2 °F 29.8 in Sur 4.5 mph 4.6 mph 82% 0 in
17:14 57.7 °F 52 °F 29.8 in SSE 3.1 mph 5.4 mph 81.4% 0 in
17:19 57.7 °F 52 °F 29.8 in ESE 3.1 mph 6.9 mph 81% 0 in
17:24 57.7 °F 52.2 °F 29.8 in ESE 3.1 mph 5.8 mph 81.9% 0 in
17:29 57.7 °F 52.5 °F 29.8 in ESE 3.1 mph 5.8 mph 82.6% 0 in
17:34 57.7 °F 52.7 °F 29.8 in ESE 3.1 mph 4.6 mph 83.4% 0 in
17:39 57.9 °F 53.1 °F 29.8 in Este 2.7 mph 3.6 mph 84% 0 in
17:44 57.7 °F 52.9 °F 29.8 in NNE 1.8 mph 4.7 mph 84% 0 in
17:49 57.6 °F 52.9 °F 29.8 in NE 2.2 mph 5.2 mph 84% 0 in
17:54 57.4 °F 52.7 °F 29.8 in NNE 2.9 mph 4.7 mph 84.5% 0 in
17:59 57.4 °F 52.9 °F 29.8 in NNE 2.9 mph 6.2 mph 85% 0 in
18:04 57.2 °F 52.7 °F 29.8 in North 2.9 mph 5.9 mph 85.3% 0 in
18:09 57 °F 52.9 °F 29.8 in NO 3.2 mph 5.9 mph 86% 0 in
18:14 57 °F 52.9 °F 29.8 in NNO 3.6 mph 5.2 mph 86% 0 in
18:19 57 °F 52.9 °F 29.8 in NO 3.4 mph 6.9 mph 86% 0 in
18:24 56.8 °F 52.7 °F 29.8 in NO 3.1 mph 5.8 mph 86% 0 in
18:29 56.8 °F 52.7 °F 29.8 in North 3 mph 4.6 mph 86% 0 in
18:34 56.8 °F 52.7 °F 29.8 in NNE 2.9 mph 6.4 mph 86% 0 in
18:39 56.8 °F 52.7 °F 29.8 in NE 3 mph 6.9 mph 86% 0 in
18:44 57 °F 52.9 °F 29.8 in NE 3.1 mph 6.9 mph 86% 0 in
18:49 57 °F 52.7 °F 29.8 in NNE 3.3 mph 5.2 mph 85.4% 0 in
18:54 57 °F 52.5 °F 29.8 in NNE 3.6 mph 4 mph 85% 0 in
18:59 57 °F 52.5 °F 29.8 in NNE 2.9 mph 4.6 mph 85% 0 in
19:04 57 °F 52.7 °F 29.8 in NE 1.8 mph 3.6 mph 85.4% 0 in
19:09 57 °F 52.9 °F 29.8 in ENE 1.9 mph 3.5 mph 86% 0 in
19:14 57 °F 52.9 °F 29.8 in ENE 2 mph 3.5 mph 86% 0 in
19:19 57 °F 52.9 °F 29.8 in NE 2.1 mph 4.6 mph 86% 0 in
19:24 56.8 °F 52.9 °F 29.8 in NE 2.4 mph 3.5 mph 86% 0 in
19:29 56.8 °F 52.5 °F 29.8 in NE 2.4 mph 4.6 mph 85.4% 0 in
19:34 56.8 °F 52.5 °F 29.8 in NE 2.4 mph 3.6 mph 85.3% 0 in
19:39 56.8 °F 52.3 °F 29.8 in ESE 2.2 mph 3.5 mph 85% 0 in
19:44 56.8 °F 52.3 °F 29.8 in Este 1.8 mph 2.9 mph 85% 0 in
19:49 56.8 °F 52.3 °F 29.8 in NE 1.8 mph 4.6 mph 85% 0 in
19:54 56.7 °F 52.2 °F 29.8 in NE 1.8 mph 4.6 mph 85% 0 in
19:59 56.7 °F 52.2 °F 29.8 in ESE 2.2 mph 5.2 mph 85% 0 in
20:04 56.7 °F 52.2 °F 29.8 in Este 2.9 mph 4.6 mph 84.8% 0 in
20:09 56.7 °F 51.8 °F 29.8 in NE 2.9 mph 5.8 mph 84.1% 0 in
20:14 56.5 °F 51.6 °F 29.8 in NE 2.9 mph 4.7 mph 83.9% 0 in
20:19 56.5 °F 51.4 °F 29.8 in NE 2.9 mph 4.6 mph 83% 0 in
20:24 56.3 °F 51.3 °F 29.8 in NE 2.9 mph 3.6 mph 83% 0 in
20:29 56.3 °F 51.3 °F 29.8 in NE 2.7 mph 4.6 mph 83% 0 in
20:34 56.3 °F 51.1 °F 29.8 in NNE 2.4 mph 4.7 mph 82.4% 0 in
20:39 56.3 °F 50.9 °F 29.8 in NNE 2.4 mph 4.3 mph 82.3% 0 in
20:44 56.1 °F 51.1 °F 29.8 in NNE 2.4 mph 4.6 mph 83% 0 in
20:49 56.1 °F 51.1 °F 29.8 in NE 2.4 mph 3.6 mph 83% 0 in
20:54 55.9 °F 50.9 °F 29.8 in NE 2.4 mph 3.6 mph 83% 0 in
20:59 55.9 °F 51.1 °F 29.8 in NE 2.4 mph 3.5 mph 83.5% 0 in
21:04 55.9 °F 51.1 °F 29.8 in NE 2.4 mph 2.9 mph 84% 0 in
21:09 55.8 °F 51.1 °F 29.8 in NE 2.1 mph 3.1 mph 84% 0 in
21:14 55.8 °F 51.1 °F 29.8 in NE 1.4 mph 3.5 mph 84.1% 0 in
21:19 55.8 °F 51.1 °F 29.8 in NE 1.4 mph   84.4% 0 in
21:24 55.6 °F 50.9 °F 29.8 in NE 1.4 mph   84.6% 0 in
21:29 55.6 °F 51.1 °F 29.8 in NE 0.9 mph   85% 0 in
21:34 55.6 °F 51.1 °F 29.8 in Calm   2.3 mph 85% 0 in
21:39 55.6 °F 51.1 °F 29.8 in Calm   2.3 mph 85% 0 in
21:44 55.4 °F 51.1 °F 29.8 in Calm   3.5 mph 85.5% 0 in
21:49 55.6 °F 51.6 °F 29.8 in SE 0.6 mph 4.7 mph 86.3% 0 in
21:54 55.6 °F 51.8 °F 29.8 in SE 2 mph 4.6 mph 87% 0 in
21:59 55.4 °F 51.8 °F 29.8 in SE 2.1 mph 3.5 mph 87.8% 0 in
22:04 55.2 °F 51.8 °F 29.8 in SE 2.4 mph 2.9 mph 88% 0 in
22:09 55.2 °F 52 °F 29.8 in SE 2.1 mph 2.3 mph 88.8% 0 in
22:14 55.2 °F 52 °F 29.8 in SE 1.4 mph 2.9 mph 89% 0 in
22:19 55 °F 52 °F 29.8 in SE 1.4 mph 3.5 mph 89% 0 in
22:24 55 °F 52 °F 29.8 in SE 1.4 mph 3.5 mph 89% 0 in
22:29 54.9 °F 51.8 °F 29.8 in ESE 1.6 mph 4.6 mph 89% 0 in
22:34 54.7 °F 51.6 °F 29.8 in ESE 2 mph 2.9 mph 89.2% 0 in
22:39 54.5 °F 51.6 °F 29.8 in ESE 1.9 mph 2.9 mph 90% 0 in
22:44 54.3 °F 51.4 °F 29.8 in Este 1.8 mph 3.6 mph 90% 0 in
22:49 54.1 °F 51.4 °F 29.8 in ENE 1.7 mph 3.6 mph 90% 0 in
22:54 54.1 °F 51.3 °F 29.8 in ENE 1.4 mph 4.6 mph 90% 0 in
22:59 54 °F 51.1 °F 29.8 in ENE 1.6 mph 2.9 mph 90% 0 in
23:04 54 °F 51.1 °F 29.8 in NE 1.8 mph 4.6 mph 90% 0 in
23:09 53.6 °F 50.7 °F 29.8 in NNE 1.9 mph 4.6 mph 90% 0 in
23:14 53.2 °F 50.5 °F 29.8 in NNE 2 mph 4.7 mph 90.1% 0 in
23:19 53.2 °F 50.7 °F 29.8 in NE 2.4 mph 5.2 mph 91% 0 in
23:24 53.1 °F 50.5 °F 29.8 in NE 3.1 mph 4.6 mph 91% 0 in
23:29 53.2 °F 50.9 °F 29.8 in NE 3 mph 4.6 mph 91.6% 0 in
23:34 53.2 °F 51.1 °F 29.8 in NNE 2.9 mph 3.6 mph 92% 0 in
23:39 53.2 °F 51.1 °F 29.8 in NNE 2.6 mph 3.5 mph 92% 0 in
23:44 53.2 °F 51.1 °F 29.8 in North 2 mph 3.6 mph 92% 0 in
23:49 53.2 °F 51.1 °F 29.8 in North 2 mph 3.5 mph 92% 0 in
23:54 53.2 °F 51.1 °F 29.8 in NO 2 mph 3.6 mph 92% 0 in
23:59 53.2 °F 50.9 °F 29.8 in NO 2.2 mph 4.6 mph 92% 0 in
Murcia-Puente Tocinos, Espa?a
Compliments of Weather Underground - 3 mb

La estación de MeteoMurcia.com, publica sus datos en los siguientes proyectos:

Weather Underground PWS IMURCIAP2 Meteoclimatic www.awekas.at

W3Counter
Web Analytics